Time;durP1;ratioP1;P1;durP2;ratioP2;P2;SDS_P1;SDS_P2;PMS_P1;PMS_P2;Temp;Humidity;BMP_temperature;BMP_pressure;BME280_temperature;BME280_humidity;BME280_pressure;Samples;Min_cycle;Max_cycle;Signal;HPM_P1;HPM_P2
2022/06/24 00:02:09;;;;;;;9.77;4.00;;;19.70;99.90;;;20.05;69.33;94855.25;4981630;28;20517;-56
2022/06/24 00:04:36;;;;;;;8.40;4.10;;;19.70;99.90;;;20.03;69.97;94856.47;4981583;28;20482;-55
2022/06/24 00:07:13;;;;;;;6.60;3.37;;;19.70;99.90;;;20.00;69.71;94847.03;4980224;28;20467;-55
2022/06/24 00:09:40;;;;;;;3.23;3.03;;;19.60;99.90;;;19.98;69.70;94858.91;4985709;28;20791;-55
2022/06/24 00:12:09;;;;;;;7.30;3.07;;;19.60;99.90;;;19.94;69.47;94861.16;4981814;28;20466;-52
2022/06/24 00:14:38;;;;;;;4.60;3.70;;;19.60;99.90;;;19.90;69.47;94865.25;4983389;28;20469;-56
2022/06/24 00:17:07;;;;;;;7.83;3.63;;;19.50;99.90;;;19.86;69.59;94861.31;4984142;28;20466;-56
2022/06/24 00:19:53;;;;;;;3.97;3.53;;;19.50;99.90;;;19.85;69.76;94878.38;4982374;28;20858;-53
2022/06/24 00:22:20;;;;;;;6.57;3.40;;;19.50;99.90;;;19.82;70.26;94871.56;4983299;28;20483;-56
2022/06/24 00:24:48;;;;;;;6.23;3.40;;;19.40;99.90;;;19.80;69.81;94876.28;4985674;28;20486;-56
2022/06/24 00:27:19;;;;;;;3.93;3.60;;;19.40;99.90;;;19.79;69.96;94879.97;4979929;28;20463;-54
2022/06/24 00:29:48;;;;;;;3.83;3.00;;;19.40;99.90;;;19.76;70.29;94882.19;4982310;28;20870;-55
2022/06/24 00:32:15;;;;;;;4.77;3.43;;;19.40;99.90;;;19.74;70.01;94889.59;4981867;28;20483;-57
2022/06/24 00:34:43;;;;;;;8.03;3.43;;;19.40;99.90;;;19.71;70.10;94891.59;4981498;28;20471;-56
2022/06/24 00:37:26;;;;;;;4.13;3.70;;;19.30;99.90;;;19.70;70.28;94902.47;4979362;28;20462;-57
2022/06/24 00:39:54;;;;;;;3.10;2.90;;;19.30;99.90;;;19.66;70.12;94899.38;4982166;28;20518;-56
2022/06/24 00:42:21;;;;;;;7.77;3.53;;;19.30;99.90;;;19.64;70.61;94893.41;4980195;28;20483;-55
2022/06/24 00:44:57;;;;;;;3.50;3.30;;;19.30;99.90;;;19.61;70.08;94888.47;4982413;28;20871;-54
2022/06/24 00:47:24;;;;;;;4.60;3.40;;;19.20;99.90;;;19.58;70.33;94888.03;4986492;28;20465;-56
2022/06/24 00:49:51;;;;;;;4.13;3.77;;;19.20;99.90;;;19.56;70.41;94893.56;4981449;28;20479;-54
2022/06/24 00:52:18;;;;;;;9.37;3.53;;;19.20;99.90;;;19.54;70.47;94890.25;4981838;28;20463;-55
2022/06/24 00:54:46;;;;;;;3.30;3.00;;;19.10;99.90;;;19.51;70.61;94888.81;4979845;28;20468;-55
2022/06/24 00:57:13;;;;;;;5.73;3.07;;;19.20;99.90;;;19.50;70.92;94889.00;4985274;28;20450;-54
2022/06/24 00:59:40;;;;;;;6.03;3.20;;;19.10;99.90;;;19.47;70.27;94892.06;4978800;28;20463;-55
2022/06/24 01:02:10;;;;;;;3.77;3.00;;;19.10;99.90;;;19.46;70.19;94887.75;4983210;28;20860;-55
2022/06/24 01:04:37;;;;;;;4.70;3.23;;;19.10;99.90;;;19.45;70.20;94888.75;4980422;28;20459;-56
2022/06/24 01:07:05;;;;;;;6.73;3.87;;;19.10;99.90;;;19.43;70.58;94888.16;4982276;28;20460;-56
2022/06/24 01:09:32;;;;;;;4.00;3.47;;;19.10;99.90;;;19.40;70.22;94894.69;4982876;28;20466;-55
2022/06/24 01:11:59;;;;;;;3.80;3.20;;;19.00;99.90;;;19.39;70.28;94893.03;4984069;28;20454;-56
2022/06/24 01:14:27;;;;;;;7.73;3.60;;;19.00;99.90;;;19.37;70.66;94905.75;4981058;28;20517;-54
2022/06/24 01:16:54;;;;;;;5.93;4.27;;;19.00;99.90;;;19.35;70.94;94905.13;4982014;28;20461;-57
2022/06/24 01:19:23;;;;;;;5.00;4.07;;;19.00;99.90;;;19.33;70.93;94899.97;4982058;28;20463;-52
2022/06/24 01:21:51;;;;;;;4.70;3.80;;;19.00;99.90;;;19.31;70.33;94904.66;4981267;28;20483;-56
2022/06/24 01:24:21;;;;;;;4.23;3.57;;;18.90;99.90;;;19.29;70.66;94901.38;4979442;28;20847;-55
2022/06/24 01:26:50;;;;;;;6.73;3.70;;;18.90;99.90;;;19.27;71.03;94898.09;4979095;28;20490;-56
2022/06/24 01:29:17;;;;;;;3.47;2.87;;;18.90;99.90;;;19.25;71.19;94892.09;4979704;28;20466;-54
2022/06/24 01:31:48;;;;;;;5.73;3.57;;;18.90;99.90;;;19.24;70.92;94894.94;4978569;28;20483;-55
2022/06/24 01:34:15;;;;;;;4.17;3.80;;;18.90;99.90;;;19.21;71.24;94898.84;4980836;28;20486;-55
2022/06/24 01:36:43;;;;;;;13.40;3.93;;;18.90;99.90;;;19.17;71.03;94901.06;4981774;28;20487;-53
2022/06/24 01:39:11;;;;;;;14.57;3.43;;;18.80;99.90;;;19.17;71.17;94897.56;4977058;28;20832;-55
2022/06/24 01:41:39;;;;;;;3.70;3.40;;;18.80;99.90;;;19.15;71.07;94899.63;4981518;28;20494;-55
2022/06/24 01:44:06;;;;;;;5.97;3.93;;;18.80;99.90;;;19.12;71.42;94895.50;4987722;28;21038;-57
2022/06/24 01:46:33;;;;;;;10.53;3.53;;;18.80;99.90;;;19.09;71.40;94890.53;4983284;28;20487;-52
2022/06/24 01:49:01;;;;;;;11.90;3.90;;;18.70;99.90;;;19.08;71.39;94893.41;4980940;28;20451;-56
2022/06/24 01:51:28;;;;;;;5.10;3.90;;;18.70;99.90;;;19.06;71.77;94895.44;4977961;28;20491;-57
2022/06/24 01:53:55;;;;;;;5.43;4.33;;;18.70;99.90;;;19.05;72.03;94891.13;4978823;28;20459;-54
2022/06/24 01:56:24;;;;;;;15.37;4.23;;;18.70;99.90;;;19.02;71.71;94873.66;4979853;28;20490;-53
2022/06/24 01:58:51;;;;;;;7.17;4.00;;;18.70;99.90;;;19.01;71.91;94864.03;4980950;28;20960;-57
2022/06/24 02:01:19;;;;;;;8.37;5.70;;;18.60;99.90;;;18.99;71.66;94861.56;4977239;28;21052;-53
2022/06/24 02:03:46;;;;;;;7.03;4.30;;;18.60;99.90;;;18.98;72.11;94864.41;4981680;28;20490;-54
2022/06/24 02:06:14;;;;;;;7.23;4.27;;;18.60;99.90;;;18.96;72.28;94861.94;4979465;28;20486;-54
2022/06/24 02:08:41;;;;;;;10.23;4.47;;;18.60;99.90;;;18.97;72.61;94852.09;4986230;28;20465;-56
2022/06/24 02:13:56;;;;;;;6.53;3.83;;;18.60;99.90;;;18.95;72.31;94870.94;4979447;28;20515;-56
2022/06/24 02:16:23;;;;;;;10.90;4.70;;;18.60;99.90;;;18.94;72.50;94871.13;4979328;28;21054;-56
2022/06/24 02:18:50;;;;;;;5.00;4.50;;;18.60;99.90;;;18.92;72.51;94868.66;4978807;28;20465;-55
2022/06/24 02:21:18;;;;;;;10.07;4.27;;;18.60;99.90;;;18.88;72.55;94864.72;4981410;28;20490;-54
2022/06/24 02:23:45;;;;;;;5.57;4.50;;;18.60;99.90;;;18.88;72.63;94867.38;4975142;28;21014;-53
2022/06/24 02:26:12;;;;;;;7.27;3.60;;;18.50;99.90;;;18.85;72.26;94865.09;4980237;28;21253;-57
2022/06/24 02:28:39;;;;;;;9.70;4.50;;;18.50;99.90;;;18.84;72.89;94875.91;4978569;28;20467;-56
2022/06/24 02:31:08;;;;;;;8.83;4.80;;;18.50;99.90;;;18.82;72.22;94886.75;4980794;28;20871;-55
2022/06/24 02:33:35;;;;;;;4.73;3.57;;;18.50;99.90;;;18.81;72.48;94885.13;4977681;28;20466;-56
2022/06/24 02:36:03;;;;;;;6.40;3.60;;;18.40;99.90;;;18.77;71.69;94894.50;4976923;28;21039;-53
2022/06/24 02:38:32;;;;;;;8.40;3.00;;;18.40;99.90;;;18.74;71.64;94894.91;4979782;28;20467;-56
2022/06/24 02:41:00;;;;;;;8.30;3.93;;;18.40;99.90;;;18.70;70.79;94883.81;4982306;28;20580;-56
2022/06/24 02:43:29;;;;;;;4.30;2.97;;;18.40;99.90;;;18.67;70.54;94870.84;4980012;28;20527;-55
2022/06/24 02:46:00;;;;;;;4.50;3.40;;;18.30;99.90;;;18.63;70.97;94872.25;4983426;28;20496;-57
2022/06/24 02:48:29;;;;;;;12.10;3.00;;;18.30;99.90;;;18.58;70.84;94869.34;4986816;28;21485;-56
2022/06/24 02:50:57;;;;;;;3.07;2.87;;;18.30;99.90;;;18.55;70.79;94870.53;4981201;28;20482;-54
2022/06/24 02:53:25;;;;;;;5.07;3.23;;;18.20;99.90;;;18.51;70.61;94863.91;4978231;28;20463;-55
2022/06/24 02:55:55;;;;;;;8.40;4.37;;;18.20;99.90;;;18.47;70.46;94868.00;4983309;28;20489;-52
2022/06/24 02:58:22;;;;;;;4.10;3.80;;;18.20;99.90;;;18.39;70.45;94874.25;4979053;28;20451;-55
2022/06/24 03:00:49;;;;;;;4.07;3.00;;;18.10;99.90;;;18.32;70.82;94869.88;4981734;28;20475;-53
2022/06/24 03:03:20;;;;;;;8.03;3.10;;;18.00;99.90;;;18.27;70.86;94873.91;4982798;28;20495;-54
2022/06/24 03:05:49;;;;;;;4.20;2.93;;;18.00;99.90;;;18.23;70.73;94883.31;4978143;28;21043;-54
2022/06/24 03:08:18;;;;;;;4.00;3.30;;;17.90;99.90;;;18.21;70.38;94885.31;4984459;28;20462;-56
2022/06/24 03:10:45;;;;;;;7.20;2.73;;;17.90;99.90;;;18.18;70.92;94877.69;4976278;28;20487;-55
2022/06/24 03:13:13;;;;;;;3.43;3.23;;;17.90;99.90;;;18.18;71.06;94883.00;4979674;28;20458;-58
2022/06/24 03:15:41;;;;;;;5.57;3.07;;;17.80;99.90;;;18.16;70.55;94882.38;4983110;28;20510;-54
2022/06/24 03:18:08;;;;;;;7.43;3.93;;;17.90;99.90;;;18.16;71.00;94894.88;4979000;28;20914;-53
2022/06/24 03:20:36;;;;;;;9.17;3.30;;;17.80;99.90;;;18.15;70.79;94890.56;4978967;28;20487;-52
2022/06/24 03:23:05;;;;;;;10.73;3.90;;;17.80;99.90;;;18.16;70.80;94882.38;4977650;28;20605;-53
2022/06/24 03:25:32;;;;;;;3.20;2.60;;;17.80;99.90;;;18.18;70.90;94885.69;4982599;28;20474;-56
2022/06/24 03:28:01;;;;;;;6.83;3.30;;;17.80;99.90;;;18.21;71.40;94885.31;4976856;28;20465;-56
2022/06/24 03:30:29;;;;;;;3.00;2.80;;;17.90;99.90;;;18.26;71.65;94892.72;4977855;28;20487;-57
2022/06/24 03:32:56;;;;;;;8.23;3.50;;;17.90;99.90;;;18.30;71.19;94903.84;4979057;28;20462;-56
2022/06/24 03:35:23;;;;;;;3.87;3.40;;;18.00;99.90;;;18.35;71.47;94898.78;4979192;28;20538;-56
2022/06/24 03:37:51;;;;;;;7.60;3.50;;;18.00;99.90;;;18.35;71.20;94896.13;4980169;28;20709;-56
2022/06/24 03:40:20;;;;;;;7.33;4.00;;;18.00;99.90;;;18.39;70.83;94889.41;4983307;28;20491;-55
2022/06/24 03:42:47;;;;;;;8.47;4.83;;;18.00;99.90;;;18.43;71.22;94888.84;4981953;28;20978;-52
2022/06/24 03:45:15;;;;;;;5.83;3.60;;;18.10;99.90;;;18.48;71.26;94892.78;4982500;28;20890;-56
2022/06/24 03:47:42;;;;;;;9.30;3.87;;;18.10;99.90;;;18.53;70.83;94891.22;4979294;28;20474;-55
2022/06/24 03:50:10;;;;;;;12.43;4.30;;;18.20;99.90;;;18.60;70.39;94892.09;4985135;28;20470;-56
2022/06/24 03:52:37;;;;;;;12.43;3.63;;;18.20;99.90;;;18.69;70.73;94902.63;4979861;28;20456;-56
2022/06/24 03:55:05;;;;;;;4.80;3.50;;;18.30;99.90;;;18.77;71.12;94895.31;4982636;28;20479;-54
2022/06/24 03:57:34;;;;;;;7.13;4.43;;;18.40;99.90;;;18.87;70.88;94884.41;4982842;28;20964;-55
2022/06/24 04:00:01;;;;;;;15.37;5.10;;;18.50;99.90;;;18.96;70.32;94888.59;4981605;28;20462;-56
2022/06/24 04:02:28;;;;;;;9.80;3.60;;;18.60;99.90;;;19.04;70.29;94881.47;4984769;28;20451;-55
2022/06/24 04:04:56;;;;;;;8.00;4.20;;;18.60;99.90;;;19.11;69.51;94885.00;4979758;28;20572;-56
2022/06/24 04:07:23;;;;;;;11.97;3.57;;;18.70;99.90;;;19.16;69.51;94887.91;4980085;28;20495;-55
2022/06/24 04:09:50;;;;;;;14.63;4.03;;;18.80;99.90;;;19.24;69.34;94890.47;4983080;28;20475;-55
2022/06/24 04:12:18;;;;;;;5.57;4.47;;;18.80;99.90;;;19.31;69.37;94902.00;4982303;28;20458;-56
2022/06/24 04:17:32;;;;;;;7.20;4.30;;;19.00;99.90;;;19.48;69.17;94902.53;4982297;28;20429;-57
2022/06/24 04:19:59;;;;;;;6.67;4.03;;;19.10;99.90;;;19.52;68.77;94900.31;4982295;28;20516;-53
2022/06/24 04:22:27;;;;;;;8.73;3.77;;;19.10;99.90;;;19.59;68.84;94906.50;4984524;28;20466;-56
2022/06/24 04:24:54;;;;;;;5.07;3.83;;;19.20;99.90;;;19.62;68.53;94910.63;4983801;28;20490;-57
2022/06/24 04:27:21;;;;;;;5.33;3.43;;;19.20;99.90;;;19.65;68.47;94915.59;4979433;28;20458;-54
2022/06/24 04:29:50;;;;;;;9.43;3.37;;;19.30;99.90;;;19.69;68.44;94915.00;4980607;28;20479;-56
2022/06/24 04:32:17;;;;;;;12.07;4.20;;;19.30;99.90;;;19.76;68.41;94916.88;4981979;28;20895;-57
2022/06/24 04:34:44;;;;;;;11.13;4.23;;;19.30;99.90;;;19.77;68.06;94922.06;4978956;28;20466;-57
2022/06/24 04:37:12;;;;;;;6.97;3.93;;;19.40;99.90;;;19.83;67.92;94921.28;4978576;28;20474;-56
2022/06/24 04:39:39;;;;;;;67.20;13.90;;;19.40;99.90;;;19.87;67.92;94922.50;4984625;28;20470;-56
2022/06/24 04:42:07;;;;;;;11.73;4.37;;;19.50;99.90;;;19.94;68.19;94921.72;4977143;28;20447;-56
2022/06/24 04:44:34;;;;;;;11.10;5.77;;;19.50;99.90;;;19.98;67.85;94929.16;4981250;28;20499;-56
2022/06/24 04:47:03;;;;;;;9.60;5.17;;;19.60;99.90;;;20.03;67.89;94924.06;4978939;28;20459;-57
2022/06/24 04:49:31;;;;;;;4.73;3.20;;;19.60;99.90;;;20.10;67.22;94920.59;4981435;28;20576;-56
2022/06/24 04:51:58;;;;;;;20.60;6.80;;;19.70;99.90;;;20.15;67.71;94920.81;4978924;28;20462;-58
2022/06/24 04:54:25;;;;;;;12.00;3.50;;;19.70;99.90;;;20.20;67.59;94924.56;4979839;28;20969;-57
2022/06/24 04:56:53;;;;;;;8.80;4.73;;;19.80;99.90;;;20.26;67.46;94933.59;4979124;28;20474;-55
2022/06/24 04:59:20;;;;;;;5.70;4.73;;;19.80;99.90;;;20.32;67.15;94924.81;4979424;28;20452;-53
2022/06/24 05:01:47;;;;;;;8.93;5.60;;;19.90;99.90;;;20.36;67.41;94925.25;4978170;28;21043;-56
2022/06/24 05:04:16;;;;;;;8.07;6.37;;;19.90;99.90;;;20.40;67.39;94921.97;4977049;28;20558;-56
2022/06/24 05:06:43;;;;;;;10.50;7.07;;;20.00;99.90;;;20.45;67.48;94923.22;4982937;28;20474;-55
2022/06/24 05:09:10;;;;;;;16.30;8.23;;;20.00;99.90;;;20.50;67.97;94931.47;4977008;28;20774;-56
2022/06/24 05:11:38;;;;;;;14.47;8.30;;;20.10;99.90;;;20.56;68.26;94933.34;4976813;28;20475;-54
2022/06/24 05:14:05;;;;;;;11.33;9.90;;;20.10;99.90;;;20.64;68.32;94938.50;4979096;28;20810;-57
2022/06/24 05:16:32;;;;;;;18.70;10.63;;;20.20;99.90;;;20.70;68.61;94937.72;4981897;28;20472;-56
2022/06/24 05:18:59;;;;;;;11.00;9.10;;;20.30;99.90;;;20.76;68.52;94936.91;4981778;28;20455;-58
2022/06/24 05:21:28;;;;;;;11.57;8.83;;;20.40;99.90;;;20.83;68.26;94938.78;4978583;28;21065;-55
2022/06/24 05:23:55;;;;;;;10.27;8.80;;;20.40;99.90;;;20.93;68.59;94944.59;4980045;28;20505;-55
2022/06/24 05:26:23;;;;;;;15.90;9.40;;;20.50;99.90;;;21.01;68.45;94944.38;4979088;28;20524;-55
2022/06/24 05:28:50;;;;;;;11.57;8.40;;;20.50;99.90;;;21.13;68.17;94949.94;4977544;28;20455;-55
2022/06/24 05:31:17;;;;;;;11.53;10.33;;;20.70;99.90;;;21.24;68.32;94959.22;4980089;28;20490;-54
2022/06/24 05:33:45;;;;;;;14.50;9.30;;;20.80;99.90;;;21.38;67.87;94952.88;4977459;28;20460;-54
2022/06/24 05:36:12;;;;;;;11.67;9.40;;;20.90;99.90;;;21.53;67.99;94951.88;4978809;28;20503;-56
2022/06/24 05:38:41;;;;;;;15.30;8.80;;;21.10;99.90;;;21.67;67.66;94953.50;4978651;28;20852;-57
2022/06/24 05:41:09;;;;;;;15.73;8.70;;;21.20;99.90;;;21.80;67.11;94953.50;4980164;28;20537;-55
2022/06/24 05:43:36;;;;;;;5.50;5.10;;;21.30;99.90;;;21.98;66.53;94950.19;4978931;28;20486;-57
2022/06/24 05:46:03;;;;;;;9.10;7.30;;;21.50;99.90;;;22.12;65.59;94945.63;4977991;28;21033;-57
2022/06/24 05:48:31;;;;;;;8.87;6.97;;;21.60;99.90;;;22.26;65.45;94950.94;4980042;28;20455;-56
2022/06/24 05:50:58;;;;;;;9.77;7.17;;;21.70;99.90;;;22.43;65.08;94954.00;4979938;28;20935;-54
2022/06/24 05:56:12;;;;;;;7.23;6.27;;;22.00;99.20;;;22.69;63.65;94966.47;4980156;28;20597;-56
2022/06/24 05:58:39;;;;;;;18.23;7.53;;;22.20;98.80;;;22.65;63.38;94975.97;4982800;28;20465;-57
2022/06/24 06:01:10;;;;;;;9.73;6.40;;;22.20;98.40;;;22.60;63.16;94978.47;4978076;28;20696;-57
2022/06/24 06:03:38;;;;;;;8.67;7.50;;;22.10;98.40;;;22.59;63.92;94976.81;4981652;28;20465;-55
2022/06/24 06:06:05;;;;;;;16.07;7.40;;;22.10;98.40;;;22.60;63.86;94973.13;4979726;28;20548;-55
2022/06/24 06:08:32;;;;;;;6.83;6.10;;;22.10;98.50;;;22.65;63.64;94970.63;4978467;28;20999;-57
2022/06/24 06:11:00;;;;;;;6.90;5.97;;;22.20;98.40;;;22.71;63.09;94959.03;4978178;28;20895;-55
2022/06/24 06:13:28;;;;;;;8.20;5.57;;;22.20;98.20;;;22.75;63.30;94952.22;4979523;28;20457;-56
2022/06/24 06:15:56;;;;;;;9.27;5.97;;;22.30;98.00;;;22.82;62.59;94955.72;4978552;28;20471;-57
2022/06/24 06:18:23;;;;;;;5.87;5.30;;;22.30;97.70;;;23.01;62.42;94958.50;4980485;28;21082;-57
2022/06/24 06:20:50;;;;;;;7.00;5.37;;;22.40;97.90;;;23.22;62.76;94944.78;4978311;28;21045;-54
2022/06/24 06:23:18;;;;;;;7.30;6.20;;;22.60;97.90;;;23.44;62.47;94933.69;4978037;28;20458;-56
2022/06/24 06:25:45;;;;;;;7.57;6.90;;;22.80;97.80;;;23.70;61.91;94954.13;4976876;28;20502;-55
2022/06/24 06:28:12;;;;;;;7.13;6.50;;;23.10;97.80;;;23.94;61.55;94957.84;4978779;28;20522;-53
2022/06/24 06:30:41;;;;;;;7.20;6.50;;;23.30;97.60;;;24.16;60.90;94954.75;4975217;28;20474;-55
2022/06/24 06:33:10;;;;;;;11.73;6.20;;;23.50;97.20;;;24.37;60.47;94953.50;4977386;28;20465;-53
2022/06/24 06:35:37;;;;;;;7.37;6.47;;;23.80;96.90;;;24.58;60.77;94946.03;4978327;28;20568;-53
2022/06/24 06:38:04;;;;;;;11.17;6.60;;;23.90;96.70;;;24.71;60.17;94940.50;4977025;28;20520;-59
2022/06/24 06:40:34;;;;;;;5.47;4.90;;;24.10;96.30;;;24.92;59.88;94943.75;4977099;28;20483;-57
2022/06/24 06:43:02;;;;;;;5.70;4.90;;;24.30;95.90;;;25.09;58.83;94946.63;4976601;28;20829;-55
2022/06/24 06:45:29;;;;;;;6.30;5.70;;;24.40;95.40;;;25.26;58.55;94944.09;4971828;28;20503;-56
2022/06/24 06:47:58;;;;;;;22.53;5.70;;;24.60;95.20;;;25.44;58.29;94937.84;4977084;28;20466;-54
2022/06/24 06:50:26;;;;;;;6.97;4.77;;;24.80;95.00;;;25.63;58.45;94933.22;4976167;28;20475;-55
2022/06/24 06:52:53;;;;;;;5.87;5.37;;;25.00;94.90;;;25.81;57.85;94934.97;4977537;28;20463;-56
2022/06/24 06:55:21;;;;;;;10.23;6.10;;;25.20;94.50;;;25.97;57.32;94936.16;4976458;28;20485;-54
2022/06/24 06:57:48;;;;;;;7.23;4.80;;;25.30;94.10;;;26.09;56.75;94929.72;4974399;28;20515;-56
2022/06/24 07:00:18;;;;;;;4.87;4.43;;;25.50;93.60;;;26.26;56.36;94935.22;4978907;28;20486;-53
2022/06/24 07:02:45;;;;;;;7.83;4.10;;;25.60;93.40;;;26.35;55.89;94932.97;4974839;28;20456;-55
2022/06/24 07:05:14;;;;;;;10.00;4.87;;;25.70;92.90;;;26.50;55.65;94927.06;4979453;28;20490;-57
2022/06/24 07:07:41;;;;;;;7.40;4.93;;;25.80;92.50;;;26.71;55.24;94925.66;4976309;28;20460;-57
2022/06/24 07:10:09;;;;;;;5.73;5.30;;;26.00;92.40;;;26.91;54.74;94924.38;4975083;28;20469;-57
2022/06/24 07:12:36;;;;;;;10.60;4.40;;;26.20;91.80;;;27.12;54.31;94929.09;4977816;28;20458;-57
2022/06/24 07:15:04;;;;;;;8.77;5.00;;;26.40;91.40;;;27.35;53.65;94922.00;4980066;28;21002;-57
2022/06/24 07:17:31;;;;;;;5.27;4.80;;;26.60;91.20;;;27.55;53.46;94922.31;4982757;28;20461;-55
2022/06/24 07:19:59;;;;;;;7.80;4.53;;;26.80;90.70;;;27.70;53.41;94918.22;4980093;28;20473;-55
2022/06/24 07:22:28;;;;;;;4.90;4.50;;;27.00;90.40;;;27.81;52.59;94916.50;4979047;28;20518;-56
2022/06/24 07:24:55;;;;;;;5.33;4.83;;;27.10;90.10;;;27.82;51.99;94908.13;4984283;28;20576;-57
2022/06/24 07:27:22;;;;;;;5.03;4.63;;;27.20;88.40;;;27.88;52.35;94915.25;4977974;28;20442;-56
2022/06/24 07:29:50;;;;;;;7.00;4.93;;;27.20;88.10;;;27.98;52.02;94924.63;4979856;28;20560;-56
2022/06/24 07:32:17;;;;;;;6.70;4.53;;;27.30;87.80;;;28.02;51.39;94918.47;4978177;28;20453;-56
2022/06/24 07:34:44;;;;;;;7.10;4.40;;;27.40;87.00;;;28.15;51.29;94922.72;4978323;28;20457;-54
2022/06/24 07:37:12;;;;;;;4.90;4.20;;;27.50;85.80;;;28.32;50.86;94921.84;4979846;28;20999;-56
2022/06/24 07:39:40;;;;;;;5.73;3.23;;;27.60;85.00;;;28.51;50.39;94904.25;4939978;28;1161614;-57
2022/06/24 07:42:08;;;;;;;7.13;3.73;;;27.80;83.10;;;28.69;49.84;94919.41;4979819;28;20199;-55
2022/06/24 07:44:35;;;;;;;6.17;3.77;;;28.00;82.00;;;28.88;49.09;94917.16;4981704;28;20490;-57
2022/06/24 07:47:03;;;;;;;5.47;3.50;;;28.10;80.50;;;29.10;48.92;94914.41;4981576;28;20454;-58
2022/06/24 07:49:31;;;;;;;7.17;4.60;;;28.40;80.10;;;29.29;48.19;94911.38;4983820;28;20454;-57
2022/06/24 07:51:59;;;;;;;14.80;4.83;;;28.50;79.50;;;29.36;48.20;94909.28;4984201;28;20977;-53
2022/06/24 07:54:26;;;;;;;9.90;3.83;;;28.70;78.90;;;29.36;48.25;94909.28;4982655;28;20447;-55
2022/06/24 07:56:57;;;;;;;5.77;3.87;;;28.70;77.50;;;29.32;47.71;94914.38;4984542;28;20454;-55
2022/06/24 07:59:24;;;;;;;17.53;5.20;;;28.70;75.90;;;29.36;48.14;94900.31;4980963;28;20481;-55
2022/06/24 08:01:53;;;;;;;5.40;3.50;;;28.80;77.00;;;29.44;47.77;94908.00;4983416;28;20810;-55
2022/06/24 08:04:20;;;;;;;6.87;3.23;;;28.80;76.60;;;29.58;46.67;94903.78;4982161;28;20458;-55
2022/06/24 08:06:49;;;;;;;4.70;2.93;;;28.90;74.10;;;29.75;46.70;94908.25;4983360;28;20474;-58
2022/06/24 08:09:18;;;;;;;3.73;2.90;;;29.00;74.80;;;29.96;45.88;94906.50;4977864;28;20453;-56
2022/06/24 08:11:45;;;;;;;3.80;3.50;;;29.20;73.30;;;30.18;46.90;94907.22;4982294;28;20924;-54
2022/06/24 08:14:14;;;;;;;11.73;4.27;;;29.50;73.60;;;30.43;45.56;94899.47;4978774;28;20204;-57
2022/06/24 08:16:42;;;;;;;10.83;5.40;;;29.70;71.50;;;30.65;44.40;94900.13;4980743;28;20230;-56
2022/06/24 08:19:09;;;;;;;11.90;5.40;;;29.90;69.20;;;30.81;44.64;94900.19;4982922;28;20680;-57
2022/06/24 08:21:36;;;;;;;4.50;4.10;;;30.10;69.20;;;30.93;43.95;94898.84;4978763;28;20258;-55
2022/06/24 08:24:05;;;;;;;6.70;3.77;;;30.30;66.60;;;31.09;44.61;94897.03;4980244;28;20253;-58
2022/06/24 08:26:33;;;;;;;4.80;3.90;;;30.40;68.00;;;31.28;44.56;94893.81;4979945;28;20685;-58
2022/06/24 08:29:01;;;;;;;18.23;4.60;;;30.60;67.50;;;31.50;43.24;94906.34;4980745;28;20207;-58
2022/06/24 08:31:30;;;;;;;11.93;4.80;;;30.80;66.10;;;31.67;42.72;94906.06;4979426;28;20231;-57
2022/06/24 08:33:57;;;;;;;3.50;3.20;;;30.90;63.90;;;31.74;41.92;94896.56;4978772;28;20798;-58
2022/06/24 08:36:26;;;;;;;12.23;4.20;;;31.00;61.80;;;31.80;42.89;94900.91;4980292;28;20665;-56
2022/06/24 08:38:54;;;;;;;6.65;3.60;;;31.10;63.60;;;31.91;42.74;94906.34;4976710;28;20293;-55
2022/06/24 08:41:24;;;;;;;12.80;4.25;;;31.20;63.30;;;31.99;42.61;94908.50;4979298;28;20728;-55
2022/06/24 08:43:52;;;;;;;4.00;2.97;;;31.30;62.70;;;32.08;41.35;94901.41;4981002;28;20713;-55
2022/06/24 08:46:20;;;;;;;4.95;4.22;;;31.40;60.80;;;32.16;41.92;94909.06;4977529;28;20241;-58
2022/06/24 08:48:49;;;;;;;10.95;4.88;;;31.50;61.30;;;32.21;41.88;94905.50;4979864;28;20567;-57
2022/06/24 08:51:16;;;;;;;5.70;3.92;;;31.50;61.40;;;32.16;42.14;94911.78;4977013;28;20231;-57
2022/06/24 08:53:44;;;;;;;13.45;5.90;;;31.50;61.00;;;32.17;41.63;94915.31;4980196;28;20687;-57
2022/06/24 08:56:12;;;;;;;10.68;4.55;;;31.50;59.90;;;32.19;41.96;94912.31;4979890;28;20238;-58
2022/06/24 08:58:40;;;;;;;11.32;4.00;;;31.50;60.20;;;32.13;41.28;94914.22;4978459;28;20262;-58
2022/06/24 09:01:08;;;;;;;4.60;3.33;;;31.50;59.10;;;32.09;41.02;94905.81;4977056;28;20224;-57
2022/06/24 09:03:35;;;;;;;17.13;10.45;;;31.40;58.70;;;32.11;41.12;94903.59;4980850;28;20230;-58
2022/06/24 09:06:14;;;;;;;6.15;4.60;;;31.50;59.10;;;32.23;40.09;94903.31;4979774;28;20319;-59
2022/06/24 09:08:41;;;;;;;11.57;5.68;;;31.50;58.10;;;32.33;40.30;94902.47;4979552;28;20212;-58
2022/06/24 09:11:10;;;;;;;7.38;5.00;;;31.70;57.60;;;32.43;40.72;94904.38;4979041;28;20843;-57
2022/06/24 09:13:44;;;;;;;13.00;6.90;;;31.80;58.00;;;32.48;40.50;94901.63;4979912;28;20207;-57
2022/06/24 09:16:12;;;;;;;16.55;10.77;;;31.80;57.90;;;32.51;40.45;94898.34;4979826;28;20219;-56
2022/06/24 09:18:39;;;;;;;6.05;5.20;;;31.80;57.60;;;32.56;40.50;94898.31;4981673;28;20199;-56
2022/06/24 09:21:07;;;;;;;11.68;7.70;;;31.80;57.60;;;32.58;39.84;94887.13;4979229;28;20231;-57
2022/06/24 09:23:51;;;;;;;7.45;4.82;;;31.90;56.70;;;32.59;38.25;94892.31;4978263;28;20563;-56
2022/06/24 09:26:28;;;;;;;9.50;6.25;;;31.90;55.40;;;32.53;39.68;94888.81;4979116;28;20262;-57
2022/06/24 09:28:56;;;;;;;7.53;4.78;;;31.90;56.90;;;32.46;40.36;94890.19;4975633;28;20265;-53
2022/06/24 09:31:26;;;;;;;3.10;2.90;;;31.80;57.10;;;32.46;39.83;94896.44;4977940;28;20230;-57
2022/06/24 09:33:53;;;;;;;3.28;2.97;;;31.80;56.10;;;32.46;39.88;94893.72;4977185;28;20207;-58
2022/06/24 09:36:24;;;;;;;5.50;2.70;;;31.80;56.70;;;32.53;38.10;94896.16;4979263;28;20548;-59
2022/06/24 09:38:59;;;;;;;7.35;2.80;;;31.80;54.20;;;32.56;39.27;94897.50;4978670;28;20198;-54
2022/06/24 09:41:27;;;;;;;5.90;2.95;;;31.90;55.10;;;32.62;38.69;94904.56;4977852;28;20785;-54
2022/06/24 09:43:58;;;;;;;14.80;7.07;;;31.90;54.80;;;32.70;37.89;94901.28;4979984;28;20764;-56
2022/06/24 09:46:26;;;;;;;4.63;4.15;;;32.00;54.20;;;32.80;38.06;94895.81;4976304;28;20235;-55
2022/06/24 09:49:02;;;;;;;10.35;4.15;;;32.10;53.60;;;32.80;37.53;94895.81;4975957;28;20208;-57
2022/06/24 09:51:29;;;;;;;6.65;4.00;;;32.20;53.50;;;32.79;37.65;94902.34;4978054;28;20234;-54
2022/06/24 09:53:58;;;;;;;9.18;4.22;;;32.20;52.70;;;32.76;37.47;94899.38;4978923;28;20427;-55
2022/06/24 09:56:25;;;;;;;7.70;3.22;;;32.10;52.20;;;32.72;37.15;94890.94;4978372;28;20891;-57
2022/06/24 10:01:35;;;;;;;8.82;5.90;;;32.10;52.90;;;32.81;38.07;94896.59;4956481;28;20231;-56
2022/06/24 10:04:04;;;;;;;3.38;2.40;;;32.20;53.40;;;32.86;38.48;94893.88;4978662;28;20203;-58
2022/06/24 10:06:32;;;;;;;3.63;2.38;;;32.20;53.80;;;32.88;37.60;94897.13;4980667;28;20238;-54
2022/06/24 10:09:01;;;;;;;3.10;2.50;;;32.20;52.70;;;32.94;37.05;94906.06;4978903;28;20242;-57
2022/06/24 10:11:28;;;;;;;3.10;2.45;;;32.30;52.20;;;32.92;37.44;94897.38;4978154;28;20309;-54
2022/06/24 10:13:56;;;;;;;2.13;1.90;;;32.30;52.20;;;32.86;36.75;94900.13;4976770;28;20214;-55
2022/06/24 10:16:23;;;;;;;2.60;2.40;;;32.20;51.30;;;32.80;35.90;94898.53;4980196;28;20226;-54
2022/06/24 10:18:51;;;;;;;2.55;2.25;;;32.20;49.50;;;32.76;36.22;94902.09;4980175;28;20222;-57
2022/06/24 10:21:18;;;;;;;6.47;2.22;;;32.20;50.30;;;32.75;35.97;94906.72;4975900;28;20318;-53
2022/06/24 10:23:49;;;;;;;11.65;2.75;;;32.10;50.10;;;32.67;36.89;94901.84;4977223;28;20211;-55
2022/06/24 10:26:24;;;;;;;6.68;2.17;;;32.10;50.80;;;32.63;36.86;94900.75;4978702;28;20618;-56
2022/06/24 10:29:28;;;;;;;11.38;2.35;;;32.00;51.60;;;32.64;36.45;94894.19;4977440;28;20285;-56
2022/06/24 10:32:10;;;;;;;3.22;2.10;;;32.00;51.10;;;32.68;35.54;94898.03;4975716;28;20279;-53
2022/06/24 10:34:42;;;;;;;7.38;2.05;;;32.00;50.20;;;32.66;35.30;94889.34;4969893;28;20770;-56